Terminal Aerodrome Forecast
Issued by NWS

Home | Current Version | Previous Version | Text Only | Print | Product List | Glossary On
Versions: 1 2 3 4 5 6 7 8 9 10 11 12 13 14
000
FTUS45 KVEF 240520
TAFBIH
TAF
KBIH 240520Z 2406/2506 14012KT P6SM FEW150
     FM240800 17007KT P6SM FEW150
     FM241200 VRB05KT P6SM FEW150
     FM241700 16015G24KT P6SM SCT150
     FM242000 17020G30KT P6SM SCT150
     FM250400 15012KT P6SM SCT150=

USA.gov is the U.S. government's official web portal to all federal, state and local government web resources and services.